createdAt,value
2022-10-10T00:02:48.924Z,74.30
2022-10-10T00:07:48.684Z,74.50
2022-10-10T00:12:47.933Z,74.50
2022-10-10T00:17:47.476Z,74.50
2022-10-10T00:22:46.375Z,74.40
2022-10-10T00:27:45.471Z,74.50
2022-10-10T00:32:44.486Z,74.50
2022-10-10T00:37:43.414Z,74.70
2022-10-10T00:42:42.519Z,74.70
2022-10-10T00:47:41.656Z,74.70
2022-10-10T00:52:40.565Z,74.90
2022-10-10T00:57:39.466Z,74.80
2022-10-10T01:02:38.597Z,74.90
2022-10-10T01:07:40.655Z,74.80
2022-10-10T01:12:39.668Z,74.80
2022-10-10T01:17:38.472Z,74.80
2022-10-10T01:22:37.515Z,74.80
2022-10-10T01:27:36.505Z,74.70
2022-10-10T01:32:35.439Z,74.80
2022-10-10T01:37:34.473Z,74.90
2022-10-10T01:42:33.521Z,74.90
2022-10-10T01:47:32.543Z,74.90
2022-10-10T01:52:31.560Z,75.00
2022-10-10T01:57:30.551Z,75.20
2022-10-10T02:02:29.831Z,75.10
2022-10-10T02:07:28.384Z,75.20
2022-10-10T02:12:27.612Z,75.20
2022-10-10T02:17:26.764Z,75.20
2022-10-10T02:22:25.820Z,75.40
2022-10-10T02:27:24.627Z,75.60
2022-10-10T02:32:23.627Z,75.70
2022-10-10T02:37:22.531Z,75.90
2022-10-10T02:42:21.663Z,76.00
2022-10-10T02:47:20.659Z,76.20
2022-10-10T02:52:19.475Z,76.40
2022-10-10T02:57:18.675Z,76.60
2022-10-10T03:02:17.496Z,76.80
2022-10-10T03:07:16.723Z,77.00
2022-10-10T03:12:15.684Z,77.00
2022-10-10T03:17:14.729Z,77.20
2022-10-10T03:22:13.551Z,77.30
2022-10-10T03:27:12.551Z,77.50
2022-10-10T03:32:11.551Z,77.40
2022-10-10T03:37:10.559Z,77.70
2022-10-10T03:42:09.571Z,77.90
2022-10-10T03:47:08.659Z,77.90
2022-10-10T03:52:07.615Z,78.10
2022-10-10T03:57:06.615Z,78.20
2022-10-10T04:02:44.258Z,78.30
2022-10-10T04:07:43.749Z,78.30
2022-10-10T04:12:42.576Z,78.80
2022-10-10T04:17:41.573Z,79.20
2022-10-10T04:22:40.595Z,79.30
2022-10-10T04:27:39.612Z,79.40
2022-10-10T04:32:38.601Z,79.50
2022-10-10T04:37:37.625Z,79.60
2022-10-10T04:42:36.634Z,79.80
2022-10-10T04:47:35.639Z,79.80
2022-10-10T04:52:34.949Z,80.20
2022-10-10T04:57:33.669Z,80.50
2022-10-10T05:02:32.689Z,80.50
2022-10-10T05:07:31.711Z,80.50
2022-10-10T05:12:30.697Z,80.70
2022-10-10T05:17:29.712Z,80.60
2022-10-10T05:22:28.709Z,80.70
2022-10-10T05:27:27.761Z,81.00
2022-10-10T05:32:26.744Z,81.20
2022-10-10T05:37:25.751Z,81.40
2022-10-10T05:42:24.579Z,81.60
2022-10-10T05:47:27.802Z,81.70
2022-10-10T05:52:25.699Z,81.80
2022-10-10T05:57:24.796Z,82.30
2022-10-10T06:02:23.644Z,82.50
2022-10-10T06:07:22.667Z,82.90
2022-10-10T06:12:21.671Z,82.80
2022-10-10T06:17:20.879Z,82.90
2022-10-10T06:22:19.711Z,83.30
2022-10-10T06:27:18.787Z,83.50
2022-10-10T06:32:17.631Z,83.50
2022-10-10T06:37:19.835Z,83.70
2022-10-10T06:42:18.856Z,83.70
2022-10-10T06:47:17.984Z,83.70
2022-10-10T06:52:16.619Z,83.70
2022-10-10T06:57:15.657Z,83.80
2022-10-10T07:02:14.731Z,83.80
2022-10-10T07:07:13.696Z,83.90
2022-10-10T07:12:12.659Z,83.80
2022-10-10T07:17:11.717Z,83.80
2022-10-10T07:22:10.792Z,83.80
2022-10-10T07:27:10.259Z,83.80
2022-10-10T07:32:09.768Z,83.70
2022-10-10T07:37:08.882Z,83.80
2022-10-10T07:42:07.784Z,83.50
2022-10-10T07:47:06.690Z,83.30
2022-10-10T07:52:05.979Z,83.40
2022-10-10T07:57:05.119Z,83.40
2022-10-10T08:02:04.247Z,82.70
2022-10-10T08:07:03.859Z,83.00
2022-10-10T08:12:03.095Z,83.30
2022-10-10T08:17:01.688Z,83.40
2022-10-10T08:22:00.696Z,83.40
2022-10-10T08:26:59.713Z,83.50
2022-10-10T08:31:58.627Z,83.60
2022-10-10T08:36:57.699Z,83.80
2022-10-10T08:41:56.988Z,83.90
2022-10-10T08:46:55.755Z,84.30
2022-10-10T08:51:54.809Z,84.40
2022-10-10T08:56:53.805Z,84.70
2022-10-10T09:02:17.645Z,84.90
2022-10-10T09:06:55.139Z,85.00
2022-10-10T09:11:53.939Z,85.20
2022-10-10T09:16:52.797Z,85.50
2022-10-10T09:21:51.896Z,85.70
2022-10-10T09:26:51.470Z,85.80
2022-10-10T09:31:51.131Z,85.70
2022-10-10T09:36:49.932Z,85.90
2022-10-10T09:41:48.764Z,85.70
2022-10-10T09:46:48.004Z,85.70
2022-10-10T09:51:46.779Z,85.70
2022-10-10T09:56:45.803Z,85.60
2022-10-10T10:01:44.794Z,84.70
2022-10-10T10:06:43.805Z,84.30
2022-10-10T10:11:42.848Z,84.50
2022-10-10T10:16:41.876Z,82.70
2022-10-10T10:21:40.899Z,82.30
2022-10-10T10:26:39.769Z,82.20
2022-10-10T10:31:42.717Z,81.50
2022-10-10T10:36:39.843Z,81.90
2022-10-10T10:41:38.939Z,82.00
2022-10-10T10:46:37.970Z,80.70
2022-10-10T10:51:36.881Z,80.70
2022-10-10T10:56:35.995Z,80.70
2022-10-10T11:06:39.626Z,78.60
2022-10-10T11:11:36.794Z,77.50
2022-10-10T11:16:47.893Z,76.80
2022-10-10T11:21:37.018Z,75.90
2022-10-10T11:26:35.995Z,76.80
2022-10-10T11:31:35.097Z,75.00
2022-10-10T11:36:33.810Z,72.60
2022-10-10T11:41:33.126Z,72.90
2022-10-10T11:46:31.954Z,73.30
2022-10-10T11:51:31.330Z,72.60
2022-10-10T11:56:29.914Z,72.90
2022-10-10T12:01:28.885Z,72.10
2022-10-10T12:06:27.973Z,72.30
2022-10-10T12:11:27.930Z,71.40
2022-10-10T12:16:30.418Z,71.20
2022-10-10T12:21:28.606Z,70.40
2022-10-10T12:26:28.033Z,69.60
2022-10-10T12:31:27.830Z,70.40
2022-10-10T12:36:26.762Z,70.30
2022-10-10T12:41:26.441Z,69.00
2022-10-10T12:46:26.403Z,68.60
2022-10-10T12:51:24.794Z,68.10
2022-10-10T12:56:24.050Z,68.10
2022-10-10T13:01:23.022Z,67.80
2022-10-10T13:06:22.036Z,68.30
2022-10-10T13:11:20.991Z,68.30
2022-10-10T13:16:19.984Z,67.80
2022-10-10T13:21:19.006Z,67.00
2022-10-10T13:26:18.465Z,67.80
2022-10-10T13:31:17.017Z,67.70
2022-10-10T13:36:15.929Z,68.20
2022-10-10T13:41:15.066Z,67.60
2022-10-10T13:46:14.062Z,67.90
2022-10-10T13:51:12.882Z,68.40
2022-10-10T13:56:12.304Z,69.00
2022-10-10T14:01:11.337Z,68.60
2022-10-10T14:06:09.853Z,67.80
2022-10-10T14:11:09.524Z,67.20
2022-10-10T14:16:08.937Z,66.80
2022-10-10T14:21:09.029Z,66.40
2022-10-10T14:26:07.925Z,66.40
2022-10-10T14:31:07.014Z,66.30
2022-10-10T14:36:06.027Z,66.60
2022-10-10T14:41:05.545Z,67.00
2022-10-10T14:46:05.062Z,67.70
2022-10-10T14:51:33.789Z,67.90
2022-10-10T14:56:04.945Z,68.00
2022-10-10T15:01:04.486Z,68.20
2022-10-10T15:06:04.418Z,68.60
2022-10-10T15:11:03.251Z,69.10
2022-10-10T15:16:02.925Z,69.90
2022-10-10T15:21:02.643Z,70.50
2022-10-10T15:26:02.323Z,71.50
2022-10-10T15:31:01.413Z,72.30
2022-10-10T15:36:10.035Z,73.00
2022-10-10T15:41:02.406Z,73.70
2022-10-10T15:46:01.206Z,74.20
2022-10-10T15:51:00.629Z,74.50
2022-10-10T15:55:59.937Z,74.90
2022-10-10T16:00:59.080Z,75.00
2022-10-10T16:05:58.044Z,74.90
2022-10-10T16:10:57.075Z,75.10
2022-10-10T16:15:56.089Z,75.50
2022-10-10T16:20:54.896Z,76.00
2022-10-10T16:25:54.181Z,76.20
2022-10-10T16:30:53.004Z,76.70
2022-10-10T16:35:52.011Z,76.60
2022-10-10T16:40:55.113Z,76.70
2022-10-10T16:45:52.191Z,77.00
2022-10-10T16:50:51.380Z,77.20
2022-10-10T16:55:50.204Z,77.30
2022-10-10T17:00:49.123Z,77.70
2022-10-10T17:05:48.298Z,78.10
2022-10-10T17:10:47.333Z,78.70
2022-10-10T17:15:46.061Z,79.10
2022-10-10T17:20:45.060Z,81.40
2022-10-10T17:25:43.960Z,82.60
2022-10-10T17:30:43.600Z,83.20
2022-10-10T17:35:42.001Z,84.00
2022-10-10T17:40:41.376Z,85.00
2022-10-10T17:45:39.953Z,85.60
2022-10-10T17:50:38.976Z,86.30
2022-10-10T17:55:38.182Z,86.70
2022-10-10T18:00:37.056Z,87.30
2022-10-10T18:05:36.075Z,88.50
2022-10-10T18:10:35.159Z,89.80
2022-10-10T18:15:34.176Z,89.60
2022-10-10T18:20:33.079Z,90.10
2022-10-10T18:25:31.991Z,90.50
2022-10-10T18:30:31.018Z,90.50
2022-10-10T18:35:30.278Z,90.00
2022-10-10T18:40:29.311Z,89.70
2022-10-10T18:45:28.245Z,88.90
2022-10-10T18:50:27.279Z,88.30
2022-10-10T18:55:28.169Z,87.70
2022-10-10T19:00:27.116Z,86.80
2022-10-10T19:05:26.247Z,86.40
2022-10-10T19:10:25.652Z,84.80
2022-10-10T19:15:24.152Z,84.50
2022-10-10T19:20:27.079Z,84.20
2022-10-10T19:25:24.236Z,84.10
2022-10-10T19:30:23.347Z,84.20
2022-10-10T19:35:22.235Z,83.80
2022-10-10T19:40:21.255Z,83.80
2022-10-10T19:45:20.267Z,83.50
2022-10-10T19:50:22.342Z,83.50
2022-10-10T19:55:21.880Z,83.20
2022-10-10T20:00:21.197Z,83.00
2022-10-10T20:05:20.583Z,82.90
2022-10-10T20:10:19.213Z,83.00
2022-10-10T20:15:18.338Z,83.10
2022-10-10T20:20:17.229Z,83.00
2022-10-10T20:25:16.247Z,82.90
2022-10-10T20:30:15.266Z,82.70
2022-10-10T20:35:14.568Z,82.40
2022-10-10T20:40:13.291Z,82.30
2022-10-10T20:45:12.299Z,82.20
2022-10-10T20:50:11.252Z,82.30
2022-10-10T20:55:10.264Z,82.20
2022-10-10T21:00:09.256Z,82.40
2022-10-10T21:05:08.327Z,82.30
2022-10-10T21:10:07.338Z,82.20
2022-10-10T21:15:06.422Z,82.30
2022-10-10T21:20:05.183Z,82.40
2022-10-10T21:25:04.283Z,82.50
2022-10-10T21:30:03.389Z,82.70
2022-10-10T21:35:02.264Z,82.80
2022-10-10T21:40:01.211Z,82.70
2022-10-10T21:45:00.335Z,82.80
2022-10-10T21:49:59.160Z,82.90
2022-10-10T21:54:58.109Z,83.10
2022-10-10T21:59:57.277Z,83.30
2022-10-10T22:04:57.581Z,83.20
2022-10-10T22:09:59.380Z,83.30
2022-10-10T22:14:58.398Z,83.50
2022-10-10T22:19:57.204Z,83.60
2022-10-10T22:24:56.337Z,83.80
2022-10-10T22:29:55.448Z,84.00
2022-10-10T22:34:54.311Z,84.30
2022-10-10T22:39:53.247Z,84.30
2022-10-10T22:44:52.260Z,84.20
2022-10-10T22:49:51.289Z,84.20
2022-10-10T22:54:50.290Z,84.10
2022-10-10T22:59:50.220Z,84.20
2022-10-10T23:04:49.337Z,84.30
2022-10-10T23:09:48.377Z,84.30
2022-10-10T23:14:48.626Z,84.50
2022-10-10T23:19:47.497Z,84.50
2022-10-10T23:24:46.657Z,84.80
2022-10-10T23:29:45.409Z,84.90
2022-10-10T23:34:44.408Z,85.00
2022-10-10T23:39:43.447Z,85.00
2022-10-10T23:44:42.273Z,85.10
2022-10-10T23:49:41.446Z,85.10
2022-10-10T23:54:40.468Z,85.30
2022-10-10T23:59:39.268Z,85.40
